TimeEDT,TemperatureF,Dew PointF,Humidity,Sea Level PressureIn,VisibilityMPH,Wind Direction,Wind SpeedMPH,Gust SpeedMPH,PrecipitationIn,Events,Conditions,WindDirDegrees,DateUTC
12:15 AM,69.8,69.8,100,30.12,8.0,Calm,Calm,-,0.00,,Clear,0,2013-10-05 04:15:00
12:35 AM,69.8,69.8,100,30.12,8.0,Calm,Calm,-,0.00,,Clear,0,2013-10-05 04:35:00
12:55 AM,69.8,69.8,100,30.11,8.0,Calm,Calm,-,0.00,,Clear,0,2013-10-05 04:55:00
1:15 AM,68.0,68.0,100,30.11,9.0,Calm,Calm,-,0.00,,Clear,0,2013-10-05 05:15:00
1:35 AM,68.0,68.0,100,30.11,7.0,Calm,Calm,-,0.00,,Clear,0,2013-10-05 05:35:00
1:55 AM,68.0,68.0,100,30.11,8.0,Calm,Calm,-,0.00,,Clear,0,2013-10-05 05:55:00
2:15 AM,68.0,68.0,100,30.10,7.0,Calm,Calm,-,0.00,,Clear,0,2013-10-05 06:15:00
2:35 AM,68.0,68.0,100,30.10,7.0,Calm,Calm,-,0.00,,Clear,0,2013-10-05 06:35:00
2:55 AM,66.2,66.2,100,30.10,8.0,Calm,Calm,-,0.00,,Clear,0,2013-10-05 06:55:00
3:15 AM,66.2,66.2,100,30.09,6.0,Calm,Calm,-,0.00,,Clear,0,2013-10-05 07:15:00
3:35 AM,66.2,66.2,100,30.08,8.0,Calm,Calm,-,0.00,,Clear,0,2013-10-05 07:35:00
3:55 AM,66.2,66.2,100,30.08,8.0,Calm,Calm,-,0.00,,Clear,0,2013-10-05 07:55:00
4:15 AM,66.2,66.2,100,30.08,8.0,Calm,Calm,-,0.00,,Clear,0,2013-10-05 08:15:00
4:35 AM,66.2,66.2,100,30.08,10.0,Calm,Calm,-,0.00,,Clear,0,2013-10-05 08:35:00
4:55 AM,66.2,66.2,100,30.08,9.0,Calm,Calm,-,0.00,,Partly Cloudy,0,2013-10-05 08:55:00
5:15 AM,66.2,66.2,100,30.09,7.0,Calm,Calm,-,0.00,,Mostly Cloudy,0,2013-10-05 09:15:00
5:35 AM,66.2,66.2,100,30.09,5.0,Calm,Calm,-,0.00,,Scattered Clouds,0,2013-10-05 09:35:00
5:55 AM,66.2,66.2,100,30.10,7.0,Calm,Calm,-,0.00,,Clear,0,2013-10-05 09:55:00
6:15 AM,66.2,66.2,100,30.10,8.0,Calm,Calm,-,0.00,,Mostly Cloudy,0,2013-10-05 10:15:00
6:35 AM,68.0,68.0,100,30.11,10.0,Calm,Calm,-,0.00,,Scattered Clouds,0,2013-10-05 10:35:00
6:50 AM,71.6,69.8,94,30.11,10.0,Calm,Calm,-,N/A,,Clear,0,2013-10-05 10:50:00
7:50 AM,71.6,69.8,94,30.12,10.0,Calm,Calm,-,N/A,,Clear,0,2013-10-05 11:50:00
8:50 AM,73.4,69.8,88,30.13,10.0,North,6.9,-,N/A,,Clear,360,2013-10-05 12:50:00
9:50 AM,75.2,68.0,78,30.13,10.0,North,5.8,-,N/A,,Clear,360,2013-10-05 13:50:00
10:50 AM,77.0,66.2,69,30.13,10.0,North,6.9,-,N/A,,Clear,360,2013-10-05 14:50:00
12:50 PM,80.6,68.0,65,30.12,10.0,NNE,6.9,-,N/A,,Partly Cloudy,20,2013-10-05 16:50:00
1:50 PM,82.4,68.0,62,30.10,10.0,NE,8.1,-,N/A,,Partly Cloudy,50,2013-10-05 17:50:00
2:50 PM,82.4,68.0,62,30.08,10.0,ENE,5.8,-,N/A,,Clear,70,2013-10-05 18:50:00
3:50 PM,80.6,69.8,70,30.07,10.0,East,4.6,-,N/A,,Clear,100,2013-10-05 19:50:00
4:50 PM,80.6,69.8,70,30.07,10.0,NE,4.6,-,N/A,,Clear,50,2013-10-05 20:50:00
5:50 PM,78.8,71.6,78,30.06,10.0,East,5.8,-,N/A,,Clear,100,2013-10-05 21:50:00
6:50 PM,77.0,71.6,83,30.06,10.0,Calm,Calm,-,N/A,,Clear,0,2013-10-05 22:50:00
9:15 PM,71.6,71.6,100,30.07,10.0,Calm,Calm,-,0.00,,Clear,0,2013-10-06 01:15:00
9:35 PM,71.6,71.6,100,30.08,9.0,Calm,Calm,-,0.00,,Clear,0,2013-10-06 01:35:00
9:55 PM,71.6,71.6,100,30.08,9.0,Calm,Calm,-,0.00,,Partly Cloudy,0,2013-10-06 01:55:00
10:15 PM,71.6,71.6,100,30.08,8.0,Calm,Calm,-,0.00,,Partly Cloudy,0,2013-10-06 02:15:00
10:35 PM,71.6,69.8,94,30.08,7.0,Calm,Calm,-,0.00,,Scattered Clouds,0,2013-10-06 02:35:00
10:55 PM,69.8,69.8,100,30.07,10.0,Calm,Calm,-,0.00,,Partly Cloudy,0,2013-10-06 02:55:00
11:15 PM,69.8,69.8,100,30.07,10.0,Calm,Calm,-,0.00,,Partly Cloudy,0,2013-10-06 03:15:00
11:35 PM,69.8,69.8,100,30.07,8.0,Calm,Calm,-,0.00,,Partly Cloudy,0,2013-10-06 03:35:00
11:55 PM,69.8,69.8,100,30.07,9.0,Calm,Calm,-,0.00,,Partly Cloudy,0,2013-10-06 03:55:00